createdAt,value
2023-03-10T00:01:00.325Z,37.42
2023-03-10T00:02:21.916Z,36.72
2023-03-10T00:03:43.009Z,49.55
2023-03-10T00:05:04.273Z,56.17
2023-03-10T00:06:27.229Z,37.78
2023-03-10T00:07:48.281Z,39.72
2023-03-10T00:09:08.822Z,33.00
2023-03-10T00:10:29.594Z,27.80
2023-03-10T00:11:50.718Z,36.28
2023-03-10T00:13:11.643Z,35.08
2023-03-10T00:14:33.786Z,38.42
2023-03-10T00:15:54.872Z,52.05
2023-03-10T00:17:15.532Z,38.53
2023-03-10T00:18:36.287Z,39.88
2023-03-10T00:19:57.242Z,31.30
2023-03-10T00:21:20.019Z,39.25
2023-03-10T00:22:40.782Z,32.40
2023-03-10T00:24:01.751Z,37.80
2023-03-10T00:25:22.473Z,36.80
2023-03-10T00:26:43.151Z,33.15
2023-03-10T00:28:03.899Z,33.42
2023-03-10T00:29:24.392Z,29.45
2023-03-10T00:30:57.307Z,31.15
2023-03-10T00:32:17.723Z,33.10
2023-03-10T00:33:38.782Z,41.53
2023-03-10T00:34:59.152Z,28.90
2023-03-10T00:36:22.636Z,40.60
2023-03-10T00:37:43.408Z,36.88
2023-03-10T00:39:04.274Z,44.75
2023-03-10T00:40:24.628Z,35.17
2023-03-10T00:41:45.293Z,38.58
2023-03-10T00:43:05.932Z,51.35
2023-03-10T00:44:26.599Z,64.93
2023-03-10T00:45:48.857Z,36.08
2023-03-10T00:47:09.787Z,40.00
2023-03-10T00:48:30.649Z,40.58
2023-03-10T00:49:51.285Z,38.85
2023-03-10T00:51:12.009Z,44.60
2023-03-10T00:52:33.116Z,36.33
2023-03-10T00:53:53.716Z,57.20
2023-03-10T00:55:14.201Z,38.35
2023-03-10T00:56:34.600Z,47.60
2023-03-10T00:57:55.737Z,39.65
2023-03-10T00:59:16.693Z,37.97
2023-03-10T01:00:37.487Z,38.03
2023-03-10T01:02:03.826Z,77.10
2023-03-10T01:03:25.917Z,56.55
2023-03-10T01:04:46.522Z,39.88
2023-03-10T01:06:07.896Z,34.38
2023-03-10T01:08:48.917Z,43.30
2023-03-10T01:10:10.692Z,61.65
2023-03-10T01:11:32.142Z,39.75
2023-03-10T01:12:52.682Z,51.10
2023-03-10T01:14:15.906Z,41.87
2023-03-10T01:15:36.831Z,75.82
2023-03-10T01:16:57.710Z,37.15
2023-03-10T01:18:20.595Z,58.53
2023-03-10T01:19:41.159Z,39.25
2023-03-10T01:21:01.973Z,36.85
2023-03-10T01:22:23.021Z,50.05
2023-03-10T01:23:43.859Z,47.03
2023-03-10T01:25:05.630Z,66.85
2023-03-10T01:26:26.461Z,87.07
2023-03-10T01:27:46.856Z,38.42
2023-03-10T01:29:07.857Z,35.78
2023-03-10T01:30:29.110Z,53.25
2023-03-10T01:31:49.614Z,39.15
2023-03-10T01:33:11.024Z,40.50
2023-03-10T01:34:32.810Z,45.47
2023-03-10T01:35:53.626Z,45.15
2023-03-10T01:37:13.907Z,53.45
2023-03-10T01:38:35.018Z,48.55
2023-03-10T01:39:56.018Z,41.53
2023-03-10T01:41:17.292Z,40.92
2023-03-10T01:42:38.117Z,55.60
2023-03-10T01:43:59.128Z,50.25
2023-03-10T01:45:57.122Z,67.85
2023-03-10T01:47:17.934Z,65.90
2023-03-10T01:48:38.735Z,53.28
2023-03-10T01:50:01.260Z,55.88
2023-03-10T01:51:22.389Z,44.47
2023-03-10T01:52:44.707Z,42.25
2023-03-10T01:54:08.778Z,53.80
2023-03-10T01:55:31.632Z,89.38
2023-03-10T01:56:53.841Z,57.17
2023-03-10T01:58:15.107Z,50.70
2023-03-10T01:59:35.507Z,58.72
2023-03-10T02:00:56.347Z,42.45
2023-03-10T02:02:17.864Z,46.63
2023-03-10T02:03:44.376Z,59.10
2023-03-10T02:05:07.493Z,59.85
2023-03-10T02:06:28.305Z,54.00
2023-03-10T02:07:48.876Z,79.88
2023-03-10T02:09:14.250Z,51.17
2023-03-10T02:10:35.411Z,47.80
2023-03-10T02:11:58.657Z,72.65
2023-03-10T02:13:22.401Z,45.45
2023-03-10T02:14:47.388Z,66.25
2023-03-10T02:16:09.888Z,41.17
2023-03-10T02:17:31.361Z,52.55
2023-03-10T02:20:23.200Z,40.83
2023-03-10T02:21:47.091Z,73.88
2023-03-10T02:23:07.757Z,96.53
2023-03-10T02:24:33.919Z,89.65
2023-03-10T02:25:58.440Z,43.30
2023-03-10T02:27:22.627Z,43.50
2023-03-10T02:28:43.634Z,41.63
2023-03-10T02:30:07.437Z,46.47
2023-03-10T02:31:29.623Z,67.35
2023-03-10T02:32:54.261Z,43.72
2023-03-10T02:34:15.124Z,47.45
2023-03-10T02:35:35.992Z,66.93
2023-03-10T02:36:56.577Z,43.03
2023-03-10T02:38:17.472Z,53.03
2023-03-10T02:39:38.169Z,36.97
2023-03-10T02:40:59.056Z,37.92
2023-03-10T02:42:21.167Z,36.45
2023-03-10T02:43:41.725Z,40.28
2023-03-10T02:45:03.334Z,40.57
2023-03-10T02:46:24.128Z,34.90
2023-03-10T02:47:44.936Z,37.75
2023-03-10T02:49:06.963Z,66.13
2023-03-10T02:50:29.493Z,39.47
2023-03-10T02:51:50.278Z,34.72
2023-03-10T02:53:13.987Z,64.28
2023-03-10T02:54:34.490Z,47.10
2023-03-10T02:55:55.409Z,36.50
2023-03-10T02:57:16.266Z,39.55
2023-03-10T02:58:38.817Z,33.25
2023-03-10T02:59:59.539Z,38.08
2023-03-10T03:01:20.652Z,34.60
2023-03-10T03:02:41.096Z,36.42
2023-03-10T03:04:02.647Z,38.85
2023-03-10T03:05:23.511Z,39.60
2023-03-10T03:06:44.141Z,44.05
2023-03-10T03:08:05.899Z,34.75
2023-03-10T03:09:26.511Z,41.25
2023-03-10T03:10:47.554Z,33.30
2023-03-10T03:12:09.040Z,37.70
2023-03-10T03:13:29.898Z,41.00
2023-03-10T03:14:52.278Z,39.80
2023-03-10T03:16:13.247Z,39.78
2023-03-10T03:17:34.524Z,32.78
2023-03-10T03:18:55.087Z,36.20
2023-03-10T03:20:16.441Z,36.72
2023-03-10T03:21:36.866Z,34.75
2023-03-10T03:22:57.833Z,37.03
2023-03-10T03:24:18.946Z,35.20
2023-03-10T03:25:40.927Z,31.65
2023-03-10T03:27:01.651Z,35.60
2023-03-10T03:28:22.538Z,56.00
2023-03-10T03:29:43.196Z,39.40
2023-03-10T03:31:05.185Z,42.88
2023-03-10T03:32:26.233Z,40.75
2023-03-10T03:33:47.508Z,44.90
2023-03-10T03:35:10.742Z,48.90
2023-03-10T03:36:31.818Z,48.75
2023-03-10T03:37:53.339Z,57.45
2023-03-10T03:39:14.162Z,44.35
2023-03-10T03:40:36.341Z,57.70
2023-03-10T03:41:57.027Z,46.22
2023-03-10T03:43:17.974Z,47.38
2023-03-10T03:44:38.830Z,45.97
2023-03-10T03:45:59.380Z,57.60
2023-03-10T03:47:21.411Z,57.00
2023-03-10T03:48:42.134Z,48.10
2023-03-10T03:50:02.789Z,37.08
2023-03-10T03:51:23.255Z,39.45
2023-03-10T03:52:44.231Z,44.27
2023-03-10T03:54:04.871Z,37.35
2023-03-10T03:55:25.670Z,39.00
2023-03-10T03:56:46.153Z,40.47
2023-03-10T03:58:06.967Z,37.40
2023-03-10T03:59:27.924Z,45.63
2023-03-10T04:00:51.531Z,33.47
2023-03-10T04:02:12.293Z,45.35
2023-03-10T04:03:34.531Z,39.25
2023-03-10T04:04:55.246Z,42.70
2023-03-10T04:06:15.841Z,41.17
2023-03-10T04:07:38.771Z,49.25
2023-03-10T04:08:59.555Z,52.42
2023-03-10T04:10:22.279Z,43.83
2023-03-10T04:11:42.775Z,37.90
2023-03-10T04:13:03.677Z,37.95
2023-03-10T04:14:24.334Z,42.78
2023-03-10T04:15:45.178Z,43.55
2023-03-10T04:17:06.227Z,43.20
2023-03-10T04:18:27.145Z,37.35
2023-03-10T04:20:00.707Z,39.07
2023-03-10T04:21:27.291Z,41.33
2023-03-10T04:22:48.067Z,41.38
2023-03-10T04:24:08.955Z,49.15
2023-03-10T04:25:29.376Z,44.35
2023-03-10T04:26:50.160Z,37.25
2023-03-10T04:28:11.190Z,37.30
2023-03-10T04:29:31.790Z,39.67
2023-03-10T04:30:52.245Z,48.27
2023-03-10T04:32:12.978Z,44.47
2023-03-10T04:33:33.828Z,51.17
2023-03-10T04:34:55.983Z,55.83
2023-03-10T04:36:16.950Z,37.58
2023-03-10T04:37:37.268Z,39.20
2023-03-10T04:38:58.320Z,46.45
2023-03-10T04:40:19.063Z,39.03
2023-03-10T04:41:39.921Z,34.40
2023-03-10T04:43:00.940Z,36.45
2023-03-10T04:44:30.976Z,50.90
2023-03-10T04:45:52.147Z,45.23
2023-03-10T04:47:12.723Z,52.20
2023-03-10T04:48:33.528Z,43.13
2023-03-10T04:49:55.436Z,53.00
2023-03-10T04:51:16.069Z,46.03
2023-03-10T04:52:36.429Z,46.83
2023-03-10T04:53:57.423Z,42.90
2023-03-10T04:55:18.494Z,53.72
2023-03-10T04:56:38.864Z,39.92
2023-03-10T04:57:59.643Z,40.83
2023-03-10T04:59:23.730Z,45.92
2023-03-10T05:01:00.390Z,42.72
2023-03-10T05:02:23.674Z,45.85
2023-03-10T05:03:44.305Z,41.25
2023-03-10T05:05:07.192Z,45.63
2023-03-10T05:06:28.378Z,43.47
2023-03-10T05:07:48.929Z,42.83
2023-03-10T05:09:09.493Z,43.80
2023-03-10T05:10:30.473Z,42.60
2023-03-10T05:11:51.026Z,45.35
2023-03-10T05:13:12.096Z,49.97
2023-03-10T05:14:32.777Z,55.05
2023-03-10T05:15:53.314Z,57.92
2023-03-10T05:17:14.468Z,70.57
2023-03-10T05:18:35.249Z,63.28
2023-03-10T05:19:56.027Z,43.55
2023-03-10T05:21:18.032Z,58.83
2023-03-10T05:22:39.349Z,46.47
2023-03-10T05:25:21.120Z,44.53
2023-03-10T05:26:41.508Z,69.30
2023-03-10T05:28:02.276Z,43.53
2023-03-10T05:29:23.078Z,37.78
2023-03-10T05:30:43.878Z,50.45
2023-03-10T05:32:04.948Z,39.20
2023-03-10T05:33:25.640Z,43.60
2023-03-10T05:34:46.617Z,62.60
2023-03-10T05:36:08.156Z,64.28
2023-03-10T05:37:30.204Z,48.92
2023-03-10T05:38:50.809Z,45.10
2023-03-10T05:40:13.703Z,57.15
2023-03-10T05:41:35.693Z,57.95
2023-03-10T05:42:56.345Z,58.75
2023-03-10T05:44:16.716Z,46.85
2023-03-10T05:45:37.694Z,62.78
2023-03-10T05:46:58.455Z,80.78
2023-03-10T05:48:19.125Z,83.88
2023-03-10T05:49:39.936Z,40.20
2023-03-10T05:51:01.794Z,46.38
2023-03-10T05:52:22.373Z,61.50
2023-03-10T05:53:44.906Z,47.92
2023-03-10T05:55:07.485Z,57.55
2023-03-10T05:56:28.104Z,47.22
2023-03-10T05:57:48.623Z,46.05
2023-03-10T05:59:09.165Z,48.55
2023-03-10T06:00:29.827Z,39.50
2023-03-10T06:01:50.280Z,91.93
2023-03-10T06:03:11.074Z,51.88
2023-03-10T06:04:31.547Z,42.15
2023-03-10T06:05:52.339Z,43.75
2023-03-10T06:07:13.025Z,51.28
2023-03-10T06:08:34.153Z,46.65
2023-03-10T06:09:56.384Z,42.90
2023-03-10T06:11:17.287Z,58.25
2023-03-10T06:12:38.328Z,66.55
2023-03-10T06:13:59.961Z,43.53
2023-03-10T06:15:20.563Z,39.92
2023-03-10T06:16:41.664Z,37.03
2023-03-10T06:18:03.101Z,39.67
2023-03-10T06:19:24.264Z,36.83
2023-03-10T06:20:44.896Z,43.20
2023-03-10T06:22:05.491Z,56.57
2023-03-10T06:23:26.601Z,35.42
2023-03-10T06:24:47.667Z,33.50
2023-03-10T06:26:12.501Z,40.83
2023-03-10T06:27:33.372Z,30.67
2023-03-10T06:28:54.151Z,33.72
2023-03-10T06:30:15.651Z,47.42
2023-03-10T06:31:36.610Z,41.63
2023-03-10T06:32:57.181Z,35.83
2023-03-10T06:34:17.912Z,31.48
2023-03-10T06:35:38.449Z,36.63
2023-03-10T06:36:59.265Z,37.72
2023-03-10T06:38:19.958Z,36.72
2023-03-10T06:39:41.127Z,36.03
2023-03-10T06:41:01.942Z,40.30
2023-03-10T06:42:23.884Z,42.20
2023-03-10T06:43:45.059Z,31.02
2023-03-10T06:45:06.850Z,27.13
2023-03-10T06:46:28.865Z,27.45
2023-03-10T06:47:49.771Z,34.90
2023-03-10T06:49:10.575Z,30.23
2023-03-10T06:50:31.848Z,31.73
2023-03-10T06:51:52.441Z,30.75
2023-03-10T06:53:14.239Z,29.58
2023-03-10T06:54:34.929Z,32.95
2023-03-10T06:55:59.268Z,28.20
2023-03-10T06:57:21.254Z,36.22
2023-03-10T06:58:43.834Z,48.42
2023-03-10T07:00:06.245Z,26.30
2023-03-10T07:01:31.876Z,33.88
2023-03-10T07:02:52.630Z,30.33
2023-03-10T07:04:13.326Z,28.60
2023-03-10T07:05:34.021Z,36.05
2023-03-10T07:06:54.962Z,25.33
2023-03-10T07:08:15.697Z,31.52
2023-03-10T07:09:36.733Z,19.02
2023-03-10T07:10:57.868Z,22.80
2023-03-10T07:12:18.416Z,23.02
2023-03-10T07:13:39.037Z,27.63
2023-03-10T07:15:01.515Z,24.23
2023-03-10T07:16:23.163Z,24.88
2023-03-10T07:17:43.644Z,21.98
2023-03-10T07:19:04.742Z,22.65
2023-03-10T07:20:25.368Z,25.17
2023-03-10T07:21:46.288Z,32.80
2023-03-10T07:23:07.239Z,21.88
2023-03-10T07:24:28.083Z,26.55
2023-03-10T07:25:51.947Z,20.92
2023-03-10T07:27:12.657Z,30.50
2023-03-10T07:28:33.743Z,20.92
2023-03-10T07:29:54.440Z,19.25
2023-03-10T07:31:17.305Z,23.55
2023-03-10T07:32:38.082Z,37.13
2023-03-10T07:33:58.843Z,22.80
2023-03-10T07:35:20.209Z,23.55
2023-03-10T07:38:01.577Z,34.58
2023-03-10T07:39:22.406Z,30.33
2023-03-10T07:40:43.372Z,20.63
2023-03-10T07:42:04.404Z,22.30
2023-03-10T07:43:25.560Z,18.67
2023-03-10T07:44:46.790Z,23.88
2023-03-10T07:46:08.421Z,32.22
2023-03-10T07:47:31.070Z,22.17
2023-03-10T07:48:52.011Z,19.17
2023-03-10T07:50:12.464Z,38.10
2023-03-10T07:51:33.394Z,36.50
2023-03-10T07:52:54.105Z,25.17
2023-03-10T07:54:14.638Z,27.30
2023-03-10T07:55:37.574Z,29.98
2023-03-10T07:56:58.432Z,28.27
2023-03-10T07:58:19.248Z,24.73
2023-03-10T07:59:40.333Z,22.80
2023-03-10T08:01:00.990Z,28.98
2023-03-10T08:02:21.600Z,21.35
2023-03-10T08:03:44.160Z,24.58
2023-03-10T08:05:05.394Z,23.10
2023-03-10T08:06:27.651Z,21.48
2023-03-10T08:07:48.413Z,31.23
2023-03-10T08:09:09.545Z,20.80
2023-03-10T08:10:30.563Z,29.92
2023-03-10T08:11:51.251Z,24.20
2023-03-10T08:13:12.308Z,27.70
2023-03-10T08:14:33.129Z,40.10
2023-03-10T08:15:54.005Z,31.58
2023-03-10T08:17:15.164Z,22.30
2023-03-10T08:19:58.894Z,22.00
2023-03-10T08:21:19.405Z,20.00
2023-03-10T08:22:40.322Z,24.83
2023-03-10T08:25:22.278Z,24.70
2023-03-10T08:26:43.244Z,26.13
2023-03-10T08:28:04.308Z,21.17
2023-03-10T08:29:26.586Z,20.40
2023-03-10T08:31:03.088Z,19.10
2023-03-10T08:32:25.518Z,19.35
2023-03-10T08:33:46.669Z,21.08
2023-03-10T08:35:09.671Z,23.52
2023-03-10T08:36:30.974Z,20.38
2023-03-10T08:37:54.822Z,20.63
2023-03-10T08:39:16.027Z,19.88
2023-03-10T08:40:37.120Z,30.00
2023-03-10T08:41:58.069Z,24.25
2023-03-10T08:43:18.701Z,27.48
2023-03-10T08:44:40.077Z,21.08
2023-03-10T08:46:00.638Z,25.20
2023-03-10T08:47:21.720Z,22.83
2023-03-10T08:48:42.968Z,19.10
2023-03-10T08:50:04.465Z,21.02
2023-03-10T08:51:27.269Z,19.75
2023-03-10T08:52:48.166Z,24.83
2023-03-10T08:54:11.278Z,13.48
2023-03-10T08:55:32.633Z,12.50
2023-03-10T08:56:53.204Z,16.63
2023-03-10T08:58:14.040Z,16.95
2023-03-10T08:59:34.847Z,17.15
2023-03-10T09:00:55.750Z,15.80
2023-03-10T09:02:16.286Z,16.48
2023-03-10T09:03:38.006Z,13.02
2023-03-10T09:04:59.219Z,14.13
2023-03-10T09:06:19.996Z,17.92
2023-03-10T09:07:42.296Z,14.18
2023-03-10T09:09:03.777Z,15.52
2023-03-10T09:10:24.324Z,17.48
2023-03-10T09:11:45.101Z,16.10
2023-03-10T09:13:13.756Z,12.07
2023-03-10T09:14:34.867Z,12.98
2023-03-10T09:15:55.545Z,15.05
2023-03-10T09:17:16.366Z,10.85
2023-03-10T09:18:37.075Z,12.00
2023-03-10T09:19:58.021Z,12.32
2023-03-10T09:21:19.368Z,11.77
2023-03-10T09:24:02.737Z,16.55
2023-03-10T09:25:23.820Z,11.68
2023-03-10T09:26:44.922Z,11.57
2023-03-10T09:28:05.700Z,11.55
2023-03-10T09:29:42.065Z,13.07
2023-03-10T09:31:04.345Z,10.25
2023-03-10T09:32:25.323Z,12.38
2023-03-10T09:33:48.306Z,10.18
2023-03-10T09:35:10.669Z,11.75
2023-03-10T09:36:31.595Z,9.38
2023-03-10T09:37:52.437Z,13.43
2023-03-10T09:39:14.522Z,15.77
2023-03-10T09:40:37.282Z,13.30
2023-03-10T09:42:22.090Z,14.35
2023-03-10T09:43:55.533Z,16.42
2023-03-10T09:45:26.981Z,15.52
2023-03-10T09:46:57.776Z,16.35
2023-03-10T09:48:30.179Z,13.23
2023-03-10T09:49:58.647Z,9.10
2023-03-10T09:51:22.943Z,9.10
2023-03-10T09:52:46.389Z,7.90
2023-03-10T09:54:18.991Z,12.38
2023-03-10T09:55:47.951Z,10.43
2023-03-10T09:57:15.189Z,10.50
2023-03-10T09:58:39.993Z,9.65
2023-03-10T10:00:03.127Z,7.72
2023-03-10T10:01:28.401Z,7.93
2023-03-10T10:02:51.778Z,8.57
2023-03-10T10:04:15.389Z,7.72
2023-03-10T10:05:36.828Z,9.05
2023-03-10T10:08:26.666Z,9.60
2023-03-10T10:09:52.959Z,7.97
2023-03-10T10:11:15.678Z,6.82
2023-03-10T10:12:36.659Z,6.38
2023-03-10T10:14:15.851Z,7.50
2023-03-10T10:17:06.107Z,7.90
2023-03-10T10:18:32.996Z,9.68
2023-03-10T10:19:53.874Z,6.32
2023-03-10T10:21:19.404Z,10.40
2023-03-10T10:22:40.196Z,7.63
2023-03-10T10:24:01.244Z,7.43
2023-03-10T10:25:24.220Z,8.52
2023-03-10T10:26:45.137Z,6.78
2023-03-10T10:28:20.355Z,8.23
2023-03-10T10:29:40.981Z,7.80
2023-03-10T10:31:14.247Z,11.43
2023-03-10T10:32:34.984Z,9.70
2023-03-10T10:33:58.222Z,9.90
2023-03-10T10:35:24.739Z,7.50
2023-03-10T10:36:48.803Z,7.68
2023-03-10T10:38:21.874Z,9.27
2023-03-10T10:39:43.389Z,8.73
2023-03-10T10:41:09.958Z,8.10
2023-03-10T10:42:32.439Z,10.50
2023-03-10T10:43:56.571Z,8.02
2023-03-10T10:45:25.172Z,10.45
2023-03-10T10:46:51.889Z,10.48
2023-03-10T10:48:33.085Z,9.32
2023-03-10T10:49:54.237Z,10.05
2023-03-10T10:51:22.400Z,9.15
2023-03-10T10:52:42.960Z,12.13
2023-03-10T10:54:05.758Z,10.18
2023-03-10T10:55:28.994Z,11.73
2023-03-10T10:56:55.539Z,12.18
2023-03-10T10:58:29.032Z,12.50
2023-03-10T10:59:49.693Z,10.32
2023-03-10T11:01:12.263Z,8.32
2023-03-10T11:02:34.432Z,7.85
2023-03-10T11:04:05.150Z,14.05
2023-03-10T11:05:32.646Z,9.02
2023-03-10T11:06:53.705Z,6.90
2023-03-10T11:08:19.775Z,9.63
2023-03-10T11:09:41.327Z,9.27
2023-03-10T11:11:08.089Z,9.77
2023-03-10T11:12:33.429Z,6.55
2023-03-10T11:14:11.102Z,7.88
2023-03-10T11:15:33.502Z,7.05
2023-03-10T11:16:57.422Z,8.07
2023-03-10T11:18:21.214Z,6.95
2023-03-10T11:19:51.670Z,6.68
2023-03-10T11:21:14.088Z,6.55
2023-03-10T11:22:39.868Z,6.88
2023-03-10T11:24:05.963Z,10.05
2023-03-10T11:25:30.848Z,8.55
2023-03-10T11:26:54.812Z,7.72
2023-03-10T11:28:37.819Z,7.35
2023-03-10T11:30:04.236Z,8.30
2023-03-10T11:31:33.975Z,6.80
2023-03-10T11:33:04.314Z,6.57
2023-03-10T11:34:28.283Z,6.63
2023-03-10T11:35:50.806Z,6.75
2023-03-10T11:37:17.740Z,6.35
2023-03-10T11:38:40.604Z,8.32
2023-03-10T11:40:14.107Z,5.07
2023-03-10T11:41:38.754Z,5.43
2023-03-10T11:43:02.517Z,7.20
2023-03-10T11:44:27.533Z,6.88
2023-03-10T11:45:50.234Z,6.68
2023-03-10T11:47:17.313Z,5.55
2023-03-10T11:48:49.368Z,6.40
2023-03-10T11:51:37.248Z,5.28
2023-03-10T11:53:01.256Z,7.20
2023-03-10T11:54:26.736Z,6.20
2023-03-10T11:55:48.747Z,6.38
2023-03-10T11:57:14.119Z,6.53
2023-03-10T11:58:41.818Z,6.63
2023-03-10T12:00:07.781Z,5.68
2023-03-10T12:01:31.376Z,7.35
2023-03-10T12:03:06.463Z,7.93
2023-03-10T12:04:31.691Z,6.97
2023-03-10T12:05:56.024Z,7.72
2023-03-10T12:07:21.405Z,6.60
2023-03-10T12:08:42.535Z,8.88
2023-03-10T12:10:05.147Z,7.20
2023-03-10T12:11:27.964Z,8.35
2023-03-10T12:12:50.251Z,10.15
2023-03-10T12:14:12.851Z,9.07
2023-03-10T12:15:37.212Z,9.02
2023-03-10T12:16:58.032Z,10.23
2023-03-10T12:18:18.429Z,13.15
2023-03-10T12:20:22.516Z,14.32
2023-03-10T12:21:43.154Z,10.48
2023-03-10T12:23:33.823Z,10.75
2023-03-10T12:24:54.785Z,10.82
2023-03-10T12:26:15.398Z,11.55
2023-03-10T12:28:11.554Z,11.55
2023-03-10T12:29:37.712Z,12.18
2023-03-10T12:31:01.773Z,13.23
2023-03-10T12:32:42.696Z,10.90
2023-03-10T12:34:14.996Z,15.02
2023-03-10T12:35:45.228Z,12.40
2023-03-10T12:37:07.850Z,11.82
2023-03-10T12:38:40.232Z,10.57
2023-03-10T12:40:00.970Z,11.20
2023-03-10T12:41:44.692Z,10.85
2023-03-10T12:43:35.162Z,10.43
2023-03-10T12:45:22.269Z,11.07
2023-03-10T12:46:46.353Z,11.57
2023-03-10T12:48:11.478Z,10.48
2023-03-10T12:49:36.822Z,14.05
2023-03-10T12:51:00.895Z,15.23
2023-03-10T12:52:27.291Z,15.63
2023-03-10T12:53:53.277Z,15.30
2023-03-10T12:55:19.676Z,11.07
2023-03-10T12:56:43.782Z,13.73
2023-03-10T12:58:09.852Z,14.73
2023-03-10T12:59:35.613Z,13.60
2023-03-10T13:00:58.587Z,13.38
2023-03-10T13:02:28.347Z,14.60
2023-03-10T13:03:51.669Z,13.35
2023-03-10T13:05:20.389Z,13.18
2023-03-10T13:06:41.478Z,13.57
2023-03-10T13:08:05.654Z,14.43
2023-03-10T13:09:28.686Z,14.93
2023-03-10T13:10:52.394Z,15.18
2023-03-10T13:12:17.384Z,18.48
2023-03-10T13:13:38.509Z,21.75
2023-03-10T13:15:00.116Z,18.25
2023-03-10T13:17:42.608Z,19.38
2023-03-10T13:19:04.305Z,23.02
2023-03-10T13:20:24.852Z,22.15
2023-03-10T13:21:46.023Z,23.10
2023-03-10T13:23:06.523Z,23.02
2023-03-10T13:24:28.620Z,25.10
2023-03-10T13:25:56.150Z,23.75
2023-03-10T13:27:18.049Z,20.95
2023-03-10T13:28:38.828Z,23.80
2023-03-10T13:31:22.430Z,24.52
2023-03-10T13:32:52.105Z,25.92
2023-03-10T13:34:14.470Z,26.88
2023-03-10T13:35:36.850Z,25.08
2023-03-10T13:37:05.280Z,22.98
2023-03-10T13:38:26.669Z,28.73
2023-03-10T13:39:47.475Z,23.52
2023-03-10T13:41:10.435Z,26.40
2023-03-10T13:42:43.353Z,29.35
2023-03-10T13:44:05.460Z,28.58
2023-03-10T13:45:26.603Z,27.38
2023-03-10T13:46:49.953Z,33.88
2023-03-10T13:48:13.567Z,35.08
2023-03-10T13:49:36.325Z,33.80
2023-03-10T13:51:05.559Z,30.65
2023-03-10T13:52:32.398Z,24.30
2023-03-10T13:53:54.688Z,25.30
2023-03-10T13:55:16.290Z,26.55
2023-03-10T13:56:39.059Z,22.83
2023-03-10T13:58:00.019Z,25.85
2023-03-10T13:59:23.168Z,23.65
2023-03-10T14:00:43.813Z,22.33
2023-03-10T14:02:05.246Z,19.25
2023-03-10T14:03:28.302Z,22.40
2023-03-10T14:04:51.463Z,23.90
2023-03-10T14:06:13.228Z,26.52
2023-03-10T14:07:35.490Z,25.75
2023-03-10T14:08:56.861Z,28.67
2023-03-10T14:10:20.408Z,29.52
2023-03-10T14:11:49.670Z,28.30
2023-03-10T14:13:40.814Z,28.67
2023-03-10T14:15:11.054Z,27.83
2023-03-10T14:16:51.013Z,27.02
2023-03-10T14:18:20.811Z,26.40
2023-03-10T14:19:50.674Z,24.35
2023-03-10T14:21:39.175Z,20.45
2023-03-10T14:23:00.708Z,23.52
2023-03-10T14:24:21.971Z,23.15
2023-03-10T14:25:43.320Z,22.15
2023-03-10T14:27:09.484Z,22.52
2023-03-10T14:28:32.257Z,22.67
2023-03-10T14:29:55.156Z,21.02
2023-03-10T14:31:21.456Z,21.52
2023-03-10T14:32:43.009Z,26.00
2023-03-10T14:34:09.504Z,30.73
2023-03-10T14:35:31.855Z,23.60
2023-03-10T14:36:56.297Z,21.05
2023-03-10T14:38:17.837Z,19.83
2023-03-10T14:39:41.706Z,21.52
2023-03-10T14:41:04.634Z,20.13
2023-03-10T14:42:27.605Z,17.60
2023-03-10T14:43:48.784Z,26.50
2023-03-10T14:45:19.994Z,37.90
2023-03-10T14:46:41.638Z,21.73
2023-03-10T14:48:05.172Z,19.25
2023-03-10T14:49:27.531Z,23.35
2023-03-10T14:50:50.618Z,25.73
2023-03-10T14:52:15.001Z,21.52
2023-03-10T14:53:37.049Z,28.13
2023-03-10T14:54:58.564Z,27.27
2023-03-10T14:56:27.082Z,26.20
2023-03-10T14:57:50.353Z,24.90
2023-03-10T14:59:14.536Z,31.13
2023-03-10T15:00:35.987Z,29.08
2023-03-10T15:01:57.782Z,28.33
2023-03-10T15:03:20.664Z,23.80
2023-03-10T15:04:44.178Z,21.05
2023-03-10T15:06:06.787Z,26.00
2023-03-10T15:07:30.875Z,21.80
2023-03-10T15:08:51.943Z,22.38
2023-03-10T15:10:13.854Z,19.98
2023-03-10T15:11:37.553Z,18.92
2023-03-10T15:13:10.864Z,16.67
2023-03-10T15:14:45.193Z,14.75
2023-03-10T15:16:06.907Z,8.05
2023-03-10T15:17:28.611Z,8.82
2023-03-10T15:18:53.596Z,10.18
2023-03-10T15:20:19.280Z,10.60
2023-03-10T15:21:48.072Z,19.63
2023-03-10T15:23:11.201Z,10.98
2023-03-10T15:24:33.814Z,15.85
2023-03-10T15:25:58.801Z,10.95
2023-03-10T15:27:21.466Z,10.27
2023-03-10T15:28:44.916Z,10.45
2023-03-10T15:30:07.740Z,11.15
2023-03-10T15:31:28.922Z,14.07
2023-03-10T15:34:14.514Z,13.95
2023-03-10T15:35:35.427Z,13.35
2023-03-10T15:36:58.348Z,14.63
2023-03-10T15:38:19.245Z,18.38
2023-03-10T15:39:41.399Z,18.85
2023-03-10T15:42:27.584Z,17.80
2023-03-10T15:43:50.190Z,18.67
2023-03-10T15:45:12.046Z,7.43
2023-03-10T15:46:36.041Z,17.77
2023-03-10T15:47:59.669Z,11.95
2023-03-10T15:49:21.244Z,17.65
2023-03-10T15:50:48.562Z,12.63
2023-03-10T15:52:11.126Z,18.92
2023-03-10T15:53:35.989Z,12.43
2023-03-10T15:54:56.592Z,14.82
2023-03-10T15:56:17.211Z,7.90
2023-03-10T15:57:37.729Z,10.18
2023-03-10T15:58:58.496Z,16.17
2023-03-10T16:00:21.601Z,21.20
2023-03-10T16:01:42.268Z,12.35
2023-03-10T16:03:02.626Z,14.00
2023-03-10T16:04:23.282Z,8.23
2023-03-10T16:05:46.597Z,13.82
2023-03-10T16:07:07.483Z,19.02
2023-03-10T16:08:29.434Z,15.13
2023-03-10T16:09:50.179Z,12.90
2023-03-10T16:11:16.753Z,7.85
2023-03-10T16:12:37.559Z,12.50
2023-03-10T16:13:58.188Z,17.77
2023-03-10T16:15:19.092Z,15.77
2023-03-10T16:16:40.211Z,7.80
2023-03-10T16:18:01.123Z,20.70
2023-03-10T16:19:22.419Z,15.57
2023-03-10T16:20:43.082Z,14.13
2023-03-10T16:23:25.907Z,7.72
2023-03-10T16:24:48.762Z,13.07
2023-03-10T16:26:11.697Z,8.55
2023-03-10T16:27:32.361Z,9.38
2023-03-10T16:28:53.981Z,11.43
2023-03-10T16:30:16.641Z,9.82
2023-03-10T16:31:37.829Z,9.65
2023-03-10T16:32:58.604Z,10.73
2023-03-10T16:34:19.319Z,13.07
2023-03-10T16:35:40.671Z,9.00
2023-03-10T16:37:01.436Z,7.75
2023-03-10T16:38:22.376Z,9.55
2023-03-10T16:39:43.299Z,13.35
2023-03-10T16:41:05.760Z,13.68
2023-03-10T16:42:26.539Z,14.93
2023-03-10T16:43:47.442Z,9.35
2023-03-10T16:45:08.818Z,7.55
2023-03-10T16:46:29.268Z,6.60
2023-03-10T16:47:49.977Z,10.40
2023-03-10T16:49:13.232Z,15.05
2023-03-10T16:50:33.973Z,6.78
2023-03-10T16:51:54.574Z,11.48
2023-03-10T16:53:17.654Z,10.13
2023-03-10T16:54:38.599Z,10.02
2023-03-10T16:56:06.607Z,10.70
2023-03-10T16:57:27.204Z,11.88
2023-03-10T16:58:47.722Z,5.53
2023-03-10T17:00:09.929Z,4.43
2023-03-10T17:01:30.855Z,13.05
2023-03-10T17:02:51.545Z,4.47
2023-03-10T17:04:12.326Z,8.25
2023-03-10T17:05:33.037Z,11.02
2023-03-10T17:06:53.895Z,14.77
2023-03-10T17:08:14.229Z,8.63
2023-03-10T17:09:35.165Z,14.05
2023-03-10T17:10:55.857Z,11.30
2023-03-10T17:12:17.938Z,13.63
2023-03-10T17:13:38.366Z,17.60
2023-03-10T17:14:59.300Z,15.50
2023-03-10T17:16:21.598Z,16.30
2023-03-10T17:17:41.842Z,12.88
2023-03-10T17:19:04.921Z,8.88
2023-03-10T17:20:25.995Z,12.25
2023-03-10T17:21:48.812Z,20.55
2023-03-10T17:23:09.547Z,13.98
2023-03-10T17:24:30.177Z,11.53
2023-03-10T17:25:50.874Z,11.45
2023-03-10T17:27:11.590Z,15.80
2023-03-10T17:28:33.717Z,16.88
2023-03-10T17:29:54.426Z,19.83
2023-03-10T17:31:17.312Z,11.20
2023-03-10T17:32:38.015Z,14.38
2023-03-10T17:34:04.186Z,9.88
2023-03-10T17:35:25.033Z,10.10
2023-03-10T17:36:45.856Z,16.23
2023-03-10T17:38:06.573Z,13.30
2023-03-10T17:39:27.261Z,11.45
2023-03-10T17:40:48.017Z,4.00
2023-03-10T17:42:08.627Z,12.98
2023-03-10T17:43:33.697Z,14.73
2023-03-10T17:44:57.029Z,11.98
2023-03-10T17:46:22.507Z,12.57
2023-03-10T17:47:43.673Z,11.85
2023-03-10T17:50:33.628Z,13.13
2023-03-10T17:51:54.312Z,18.40
2023-03-10T17:53:15.005Z,14.90
2023-03-10T17:54:35.523Z,13.63
2023-03-10T17:55:56.866Z,13.25
2023-03-10T17:57:17.508Z,9.43
2023-03-10T17:58:37.973Z,17.73
2023-03-10T18:00:00.265Z,14.25
2023-03-10T18:01:22.939Z,13.27
2023-03-10T18:02:43.884Z,13.85
2023-03-10T18:04:04.581Z,16.27
2023-03-10T18:05:24.787Z,16.63
2023-03-10T18:06:45.521Z,18.27
2023-03-10T18:08:06.055Z,18.02
2023-03-10T18:09:27.386Z,16.20
2023-03-10T18:12:08.719Z,18.35
2023-03-10T18:13:29.268Z,13.67
2023-03-10T18:14:50.152Z,16.08
2023-03-10T18:16:16.217Z,9.95
2023-03-10T18:17:37.106Z,26.15